Time;durP1;ratioP1;P1;durP2;ratioP2;P2;SDS_P1;SDS_P2;PMS_P1;PMS_P2;Temp;Humidity;BMP_temperature;BMP_pressure;BME280_temperature;BME280_humidity;BME280_pressure;Samples;Min_cycle;Max_cycle;Signal;HPM_P1;HPM_P2
2021/08/13 00:01:01;;;;;;;12.20;7.60;;;;;;;;;;4891152;29;20083;-81
2021/08/13 00:03:27;;;;;;;11.30;6.90;;;;;;;;;;4869435;29;20049;-82
2021/08/13 00:05:52;;;;;;;11.90;8.18;;;;;;;;;;4884850;29;20378;-82
2021/08/13 00:08:17;;;;;;;12.98;8.00;;;;;;;;;;4883095;29;20080;-82
2021/08/13 00:10:43;;;;;;;10.13;7.67;;;;;;;;;;4886976;29;20016;-82
2021/08/13 00:13:08;;;;;;;13.30;8.05;;;;;;;;;;4881079;29;20029;-82
2021/08/13 00:15:34;;;;;;;12.98;7.88;;;;;;;;;;4865574;29;20040;-82
2021/08/13 00:17:59;;;;;;;11.55;7.75;;;;;;;;;;4885943;29;20024;-82
2021/08/13 00:20:24;;;;;;;11.97;8.17;;;;;;;;;;4889230;29;20017;-83
2021/08/13 00:22:50;;;;;;;11.05;7.13;;;;;;;;;;4891577;29;20290;-82
2021/08/13 00:25:16;;;;;;;11.98;7.25;;;;;;;;;;4888534;29;20033;-82
2021/08/13 00:27:41;;;;;;;9.93;7.20;;;;;;;;;;4887942;29;20029;-82
2021/08/13 00:30:07;;;;;;;13.63;7.40;;;;;;;;;;4881864;29;20033;-82
2021/08/13 00:32:32;;;;;;;11.13;7.80;;;;;;;;;;4878893;29;20288;-82
2021/08/13 00:34:57;;;;;;;10.48;7.25;;;;;;;;;;4884783;29;20029;-82
2021/08/13 00:37:23;;;;;;;11.45;7.65;;;;;;;;;;4877844;29;20112;-82
2021/08/13 00:39:48;;;;;;;12.32;8.02;;;;;;;;;;4886937;29;20383;-81
2021/08/13 00:42:14;;;;;;;10.88;7.35;;;;;;;;;;4876343;29;20703;-83
2021/08/13 00:44:39;;;;;;;10.43;7.43;;;;;;;;;;4880693;29;20021;-82
2021/08/13 00:47:04;;;;;;;10.52;6.85;;;;;;;;;;4887474;29;20480;-82
2021/08/13 00:49:30;;;;;;;11.77;7.57;;;;;;;;;;4887909;29;20079;-82
2021/08/13 00:51:55;;;;;;;11.65;8.52;;;;;;;;;;4891897;29;20032;-83
2021/08/13 00:54:21;;;;;;;12.65;7.60;;;;;;;;;;4883571;29;20061;-84
2021/08/13 00:56:47;;;;;;;12.27;7.20;;;;;;;;;;4884631;29;20384;-83
2021/08/13 00:59:12;;;;;;;12.27;7.30;;;;;;;;;;4884143;29;20036;-83
2021/08/13 01:01:37;;;;;;;11.35;7.50;;;;;;;;;;4888473;29;20440;-83
2021/08/13 01:04:03;;;;;;;13.83;8.20;;;;;;;;;;4887090;29;20499;-83
2021/08/13 01:06:28;;;;;;;11.93;8.05;;;;;;;;;;4885440;29;20137;-83
2021/08/13 01:08:54;;;;;;;15.93;8.30;;;;;;;;;;4887666;29;20037;-82
2021/08/13 01:11:31;;;;;;;11.07;7.72;;;;;;;;;;4887994;29;20048;-82
2021/08/13 01:14:23;;;;;;;13.45;7.80;;;;;;;;;;4881218;29;20483;-82
2021/08/13 01:16:51;;;;;;;9.73;6.93;;;;;;;;;;4866865;29;20400;-82
2021/08/13 01:19:26;;;;;;;12.00;7.78;;;;;;;;;;4881741;29;20674;-82
2021/08/13 01:21:55;;;;;;;11.23;7.35;;;;;;;;;;4885964;29;20605;-82
2021/08/13 01:24:22;;;;;;;11.13;7.50;;;;;;;;;;4891160;29;20383;-81
2021/08/13 01:27:01;;;;;;;10.30;7.10;;;;;;;;;;4885231;29;20416;-81
2021/08/13 01:29:33;;;;;;;10.90;7.38;;;;;;;;;;4876984;29;20362;-81
2021/08/13 01:32:10;;;;;;;12.43;7.93;;;;;;;;;;4876368;29;20172;-82
2021/08/13 01:34:39;;;;;;;10.13;7.15;;;;;;;;;;4886272;29;20424;-82
2021/08/13 01:37:04;;;;;;;10.27;7.00;;;;;;;;;;4879025;29;20406;-82
2021/08/13 01:39:30;;;;;;;10.63;7.68;;;;;;;;;;4881909;29;20269;-83
2021/08/13 01:41:56;;;;;;;10.82;7.60;;;;;;;;;;4886057;29;21835;-82
2021/08/13 01:44:22;;;;;;;10.25;7.78;;;;;;;;;;4884042;29;20021;-82
2021/08/13 01:46:47;;;;;;;10.98;8.10;;;;;;;;;;4884751;29;20384;-82
2021/08/13 01:49:14;;;;;;;13.02;7.50;;;;;;;;;;4884708;29;20100;-83
2021/08/13 01:51:40;;;;;;;13.07;7.68;;;;;;;;;;4885149;29;20443;-81
2021/08/13 01:54:06;;;;;;;10.77;7.75;;;;;;;;;;4881805;29;20826;-82
2021/08/13 01:56:31;;;;;;;8.80;6.90;;;;;;;;;;4882773;29;20033;-82
2021/08/13 01:58:57;;;;;;;12.85;7.82;;;;;;;;;;4884591;29;20029;-82
2021/08/13 02:01:23;;;;;;;11.80;7.55;;;;;;;;;;4873746;29;20689;-82
2021/08/13 02:03:49;;;;;;;14.73;8.00;;;;;;;;;;4879449;29;20064;-82
2021/08/13 02:06:15;;;;;;;11.15;7.70;;;;;;;;;;4883475;29;20029;-83
2021/08/13 02:08:41;;;;;;;12.15;8.32;;;;;;;;;;4883325;29;20409;-82
2021/08/13 02:11:06;;;;;;;10.43;6.85;;;;;;;;;;4883349;29;20027;-82
2021/08/13 02:13:34;;;;;;;14.10;7.95;;;;;;;;;;4888432;29;20120;-82
2021/08/13 02:16:05;;;;;;;10.68;7.43;;;;;;;;;;4890616;29;20131;-82
2021/08/13 02:18:31;;;;;;;10.07;7.65;;;;;;;;;;4891051;29;20726;-82
2021/08/13 02:21:00;;;;;;;12.07;7.53;;;;;;;;;;4879160;29;20060;-82
2021/08/13 02:23:25;;;;;;;15.10;7.75;;;;;;;;;;4881357;29;20367;-82
2021/08/13 02:25:51;;;;;;;11.30;7.70;;;;;;;;;;4882033;29;20033;-82
2021/08/13 02:28:16;;;;;;;11.27;8.30;;;;;;;;;;4888026;29;20328;-81
2021/08/13 02:30:41;;;;;;;11.70;7.43;;;;;;;;;;4884251;29;20027;-81
2021/08/13 02:33:06;;;;;;;11.80;8.10;;;;;;;;;;4883069;29;20036;-82
2021/08/13 02:35:32;;;;;;;10.15;7.28;;;;;;;;;;4889003;29;20776;-82
2021/08/13 02:38:01;;;;;;;11.63;7.78;;;;;;;;;;4877463;29;20067;-83
2021/08/13 02:40:30;;;;;;;14.98;8.30;;;;;;;;;;4889103;29;20452;-83
2021/08/13 02:43:01;;;;;;;10.63;7.57;;;;;;;;;;4887143;29;20425;-83
2021/08/13 02:45:28;;;;;;;11.82;7.90;;;;;;;;;;4871005;29;20520;-82
2021/08/13 02:47:54;;;;;;;13.13;7.78;;;;;;;;;;4881113;29;20620;-83
2021/08/13 02:50:21;;;;;;;10.00;7.93;;;;;;;;;;4892531;29;20705;-82
2021/08/13 02:52:49;;;;;;;10.38;7.47;;;;;;;;;;4880058;29;20451;-83
2021/08/13 02:55:16;;;;;;;10.98;7.32;;;;;;;;;;4880609;29;20479;-83
2021/08/13 02:57:43;;;;;;;11.43;7.20;;;;;;;;;;4889195;29;20357;-83
2021/08/13 03:00:15;;;;;;;10.20;7.45;;;;;;;;;;4876707;29;20441;-84
2021/08/13 03:02:40;;;;;;;13.40;8.77;;;;;;;;;;4884717;29;20396;-83
2021/08/13 03:05:07;;;;;;;10.98;7.47;;;;;;;;;;4885385;29;20032;-83
2021/08/13 03:07:32;;;;;;;15.90;7.70;;;;;;;;;;4889444;29;20488;-83
2021/08/13 03:09:58;;;;;;;12.05;8.20;;;;;;;;;;4890654;29;20112;-83
2021/08/13 03:12:23;;;;;;;12.25;8.20;;;;;;;;;;4891949;29;20039;-83
2021/08/13 03:14:49;;;;;;;10.63;7.82;;;;;;;;;;4885830;29;20067;-83
2021/08/13 03:17:16;;;;;;;11.23;8.25;;;;;;;;;;4885616;29;20034;-83
2021/08/13 03:19:41;;;;;;;11.60;7.75;;;;;;;;;;4889838;29;20497;-83
2021/08/13 03:22:07;;;;;;;11.68;8.27;;;;;;;;;;4890931;29;20054;-83
2021/08/13 03:24:33;;;;;;;11.25;8.02;;;;;;;;;;4885423;29;20021;-83
2021/08/13 03:26:58;;;;;;;10.35;7.68;;;;;;;;;;4890440;29;20035;-83
2021/08/13 03:29:24;;;;;;;11.57;8.40;;;;;;;;;;4891605;29;20020;-82
2021/08/13 03:31:49;;;;;;;15.57;8.07;;;;;;;;;;4891051;29;20138;-83
2021/08/13 03:34:15;;;;;;;11.20;7.17;;;;;;;;;;4879233;29;20056;-83
2021/08/13 03:36:40;;;;;;;13.20;8.52;;;;;;;;;;4886238;29;20376;-83
2021/08/13 03:39:07;;;;;;;10.00;8.27;;;;;;;;;;4883720;29;20032;-82
2021/08/13 03:41:32;;;;;;;11.40;8.25;;;;;;;;;;4883040;29;20025;-82
2021/08/13 03:43:58;;;;;;;10.70;7.90;;;;;;;;;;4888596;29;20137;-82
2021/08/13 03:46:23;;;;;;;13.05;7.95;;;;;;;;;;4889206;29;20025;-83
2021/08/13 03:48:48;;;;;;;11.32;7.88;;;;;;;;;;4887524;29;20643;-82
2021/08/13 03:51:14;;;;;;;11.20;8.60;;;;;;;;;;4887272;29;20036;-82
2021/08/13 03:53:39;;;;;;;11.75;8.30;;;;;;;;;;4884784;29;20099;-81
2021/08/13 03:56:05;;;;;;;11.20;8.38;;;;;;;;;;4885650;29;20032;-82
2021/08/13 03:58:30;;;;;;;10.85;8.20;;;;;;;;;;4884890;29;20029;-81
2021/08/13 04:00:55;;;;;;;11.95;8.48;;;;;;;;;;4881507;29;20111;-82
2021/08/13 04:03:21;;;;;;;11.70;7.77;;;;;;;;;;4882295;29;20072;-82
2021/08/13 04:05:47;;;;;;;10.32;7.90;;;;;;;;;;4882010;29;20835;-82
2021/08/13 04:08:12;;;;;;;11.20;7.50;;;;;;;;;;4886926;29;20092;-82
2021/08/13 04:10:37;;;;;;;12.47;8.13;;;;;;;;;;4882769;29;20028;-82
2021/08/13 04:13:02;;;;;;;11.37;8.13;;;;;;;;;;4880759;29;20033;-83
2021/08/13 04:15:29;;;;;;;11.40;8.23;;;;;;;;;;4883440;29;20605;-83
2021/08/13 04:17:54;;;;;;;11.95;8.50;;;;;;;;;;4887613;29;20380;-83
2021/08/13 04:20:20;;;;;;;14.85;8.48;;;;;;;;;;4886178;29;20033;-82
2021/08/13 04:22:45;;;;;;;10.70;8.30;;;;;;;;;;4888082;29;20069;-81
2021/08/13 04:25:11;;;;;;;10.00;7.90;;;;;;;;;;4884613;29;20022;-81
2021/08/13 04:27:36;;;;;;;11.55;8.23;;;;;;;;;;4882389;29;20108;-83
2021/08/13 04:30:02;;;;;;;10.23;8.10;;;;;;;;;;4885919;29;20540;-83
2021/08/13 04:32:27;;;;;;;14.68;9.32;;;;;;;;;;4888142;29;20153;-84
2021/08/13 04:34:52;;;;;;;11.83;8.27;;;;;;;;;;4887447;29;20043;-82
2021/08/13 04:37:17;;;;;;;11.20;8.73;;;;;;;;;;4882723;29;20040;-82
2021/08/13 04:39:43;;;;;;;11.77;8.90;;;;;;;;;;4880105;29;20029;-85
2021/08/13 04:42:08;;;;;;;12.73;8.70;;;;;;;;;;4887067;29;20020;-82
2021/08/13 04:44:33;;;;;;;10.63;8.65;;;;;;;;;;4885552;29;20268;-82
2021/08/13 04:46:59;;;;;;;11.55;8.32;;;;;;;;;;4888155;29;20480;-82
2021/08/13 04:49:25;;;;;;;11.32;8.23;;;;;;;;;;4878589;29;20029;-82
2021/08/13 04:51:50;;;;;;;15.18;8.63;;;;;;;;;;4876956;29;20044;-82
2021/08/13 04:54:16;;;;;;;12.05;7.97;;;;;;;;;;4884945;29;20033;-83
2021/08/13 04:56:41;;;;;;;14.03;8.43;;;;;;;;;;4882657;29;20017;-85
2021/08/13 04:59:06;;;;;;;14.77;8.57;;;;;;;;;;4877348;29;20121;-88
2021/08/13 05:01:31;;;;;;;12.53;8.80;;;;;;;;;;4881120;29;20072;-86
2021/08/13 05:03:56;;;;;;;11.60;7.97;;;;;;;;;;4879027;29;20049;-86
2021/08/13 05:06:22;;;;;;;13.00;8.60;;;;;;;;;;4884382;29;20288;-88
2021/08/13 05:08:47;;;;;;;12.53;7.93;;;;;;;;;;4885500;29;20029;-87
2021/08/13 05:11:12;;;;;;;10.95;8.07;;;;;;;;;;4888058;29;20958;-86
2021/08/13 05:13:37;;;;;;;12.93;7.87;;;;;;;;;;4886170;29;20077;-83
2021/08/13 05:16:03;;;;;;;13.32;8.20;;;;;;;;;;4885324;29;20021;-81
2021/08/13 05:18:28;;;;;;;14.02;8.68;;;;;;;;;;4879491;29;20103;-83
2021/08/13 05:20:55;;;;;;;11.73;8.65;;;;;;;;;;4888296;29;20484;-83
2021/08/13 05:23:20;;;;;;;11.75;9.63;;;;;;;;;;4883918;29;20654;-82
2021/08/13 05:25:46;;;;;;;15.05;9.95;;;;;;;;;;4877819;29;20024;-82
2021/08/13 05:28:11;;;;;;;12.40;8.35;;;;;;;;;;4886077;29;20025;-84
2021/08/13 05:30:36;;;;;;;13.27;9.63;;;;;;;;;;4879548;29;20048;-83
2021/08/13 05:33:02;;;;;;;14.88;8.60;;;;;;;;;;4880464;29;20097;-82
2021/08/13 05:35:27;;;;;;;14.35;8.90;;;;;;;;;;4875741;29;20081;-84
2021/08/13 05:37:53;;;;;;;14.18;8.85;;;;;;;;;;4879090;29;20023;-83
2021/08/13 05:40:18;;;;;;;12.10;8.63;;;;;;;;;;4886310;29;20052;-85
2021/08/13 05:42:44;;;;;;;15.23;8.93;;;;;;;;;;4880567;29;20299;-83
2021/08/13 05:45:09;;;;;;;14.50;9.25;;;;;;;;;;4875587;29;20053;-82
2021/08/13 05:47:38;;;;;;;13.93;8.88;;;;;;;;;;4874643;29;20026;-83
2021/08/13 05:50:04;;;;;;;14.82;9.18;;;;;;;;;;4876528;29;20043;-83
2021/08/13 05:52:29;;;;;;;12.70;9.20;;;;;;;;;;4877883;29;20033;-81
2021/08/13 05:54:54;;;;;;;13.80;9.90;;;;;;;;;;4876621;29;20480;-84
2021/08/13 05:57:19;;;;;;;13.68;9.13;;;;;;;;;;4878730;29;20085;-82
2021/08/13 05:59:45;;;;;;;11.55;8.35;;;;;;;;;;4863983;29;20025;-82
2021/08/13 06:02:10;;;;;;;15.37;9.57;;;;;;;;;;4875700;29;20021;-82
2021/08/13 06:04:35;;;;;;;13.77;8.67;;;;;;;;;;4873761;29;20105;-83
2021/08/13 06:07:01;;;;;;;14.50;8.65;;;;;;;;;;4876786;29;20308;-81
2021/08/13 06:09:26;;;;;;;14.50;9.75;;;;;;;;;;4884294;29;20021;-82
2021/08/13 06:11:52;;;;;;;14.05;8.55;;;;;;;;;;4876727;29;20503;-81
2021/08/13 06:14:17;;;;;;;12.15;8.98;;;;;;;;;;4877039;29;20036;-84
2021/08/13 06:16:43;;;;;;;22.48;16.15;;;;;;;;;;4878064;29;20033;-84
2021/08/13 06:19:08;;;;;;;22.98;19.50;;;;;;;;;;4876357;29;20025;-84
2021/08/13 06:21:34;;;;;;;14.65;10.13;;;;;;;;;;4859351;29;20164;-83
2021/08/13 06:23:59;;;;;;;13.53;9.33;;;;;;;;;;4882336;29;20091;-81
2021/08/13 06:26:24;;;;;;;13.90;9.35;;;;;;;;;;4877945;29;20029;-82
2021/08/13 06:28:50;;;;;;;12.13;8.95;;;;;;;;;;4881545;29;20021;-81
2021/08/13 06:31:15;;;;;;;10.75;8.77;;;;;;;;;;4883883;29;20013;-80
2021/08/13 06:33:40;;;;;;;12.40;8.55;;;;;;;;;;4878602;29;20035;-79
2021/08/13 06:36:06;;;;;;;12.03;9.10;;;;;;;;;;4885344;29;20555;-80
2021/08/13 06:38:32;;;;;;;12.17;8.80;;;;;;;;;;4881242;29;20021;-80
2021/08/13 06:40:57;;;;;;;13.07;8.50;;;;;;;;;;4879542;29;20029;-80
2021/08/13 06:43:22;;;;;;;12.30;9.20;;;;;;;;;;4879783;29;20024;-82
2021/08/13 06:45:48;;;;;;;13.07;8.50;;;;;;;;;;4881936;29;20070;-81
2021/08/13 06:48:13;;;;;;;18.30;9.60;;;;;;;;;;4884698;29;20044;-80
2021/08/13 06:50:38;;;;;;;14.10;8.70;;;;;;;;;;4887635;29;20028;-80
2021/08/13 06:53:03;;;;;;;17.60;13.43;;;;;;;;;;4884489;29;20352;-81
2021/08/13 06:55:29;;;;;;;15.68;12.35;;;;;;;;;;4877972;29;20361;-80
2021/08/13 06:57:54;;;;;;;12.98;10.30;;;;;;;;;;4881026;29;20120;-81
2021/08/13 07:00:19;;;;;;;14.95;8.43;;;;;;;;;;4879967;29;20032;-81
2021/08/13 07:02:47;;;;;;;12.93;8.97;;;;;;;;;;4880966;29;20017;-82
2021/08/13 07:05:13;;;;;;;11.75;8.35;;;;;;;;;;4875514;29;20629;-81
2021/08/13 07:07:42;;;;;;;12.13;9.02;;;;;;;;;;4879343;29;20029;-83
2021/08/13 07:10:08;;;;;;;10.57;8.07;;;;;;;;;;4882841;29;20384;-84
2021/08/13 07:12:34;;;;;;;13.43;9.18;;;;;;;;;;4892567;29;20059;-83
2021/08/13 07:15:00;;;;;;;11.18;8.57;;;;;;;;;;4888969;29;20020;-84
2021/08/13 07:17:25;;;;;;;13.82;7.72;;;;;;;;;;4885293;29;20123;-85
2021/08/13 07:19:50;;;;;;;11.32;8.10;;;;;;;;;;4880224;29;20485;-82
2021/08/13 07:22:15;;;;;;;11.60;8.23;;;;;;;;;;4884764;29;20017;-83
2021/08/13 07:24:41;;;;;;;11.98;7.68;;;;;;;;;;4880238;29;20381;-84
2021/08/13 07:27:06;;;;;;;23.70;8.50;;;;;;;;;;4877846;29;20025;-84
2021/08/13 07:29:32;;;;;;;11.05;7.57;;;;;;;;;;4882969;29;20036;-84
2021/08/13 07:31:57;;;;;;;11.18;8.07;;;;;;;;;;4879320;29;20421;-83
2021/08/13 07:34:23;;;;;;;12.37;10.27;;;;;;;;;;4869961;29;20112;-83
2021/08/13 07:36:48;;;;;;;25.80;23.02;;;;;;;;;;4877742;29;20277;-82
2021/08/13 07:39:13;;;;;;;11.07;8.30;;;;;;;;;;4885044;29;20506;-82
2021/08/13 07:41:39;;;;;;;13.52;8.30;;;;;;;;;;4880155;29;20033;-82
2021/08/13 07:44:04;;;;;;;10.63;6.82;;;;;;;;;;4882301;29;20029;-84
2021/08/13 07:46:30;;;;;;;13.67;8.67;;;;;;;;;;4882511;29;20021;-82
2021/08/13 07:48:55;;;;;;;11.57;8.27;;;;;;;;;;4887147;29;20025;-81
2021/08/13 07:51:20;;;;;;;11.53;7.43;;;;;;;;;;4884490;29;20490;-82
2021/08/13 07:53:45;;;;;;;12.20;8.30;;;;;;;;;;4888120;29;20044;-82
2021/08/13 07:56:11;;;;;;;11.05;7.70;;;;;;;;;;4882393;29;20045;-83
2021/08/13 07:58:36;;;;;;;11.37;7.93;;;;;;;;;;4886031;29;20025;-78
2021/08/13 08:01:02;;;;;;;13.57;8.60;;;;;;;;;;4880568;29;20084;-77
2021/08/13 08:03:27;;;;;;;15.07;7.90;;;;;;;;;;4883050;29;20052;-78
2021/08/13 08:05:52;;;;;;;10.77;7.83;;;;;;;;;;4881653;29;20028;-78
2021/08/13 08:08:18;;;;;;;15.30;8.80;;;;;;;;;;4876625;29;20017;-79
2021/08/13 08:10:46;;;;;;;11.93;8.67;;;;;;;;;;4883844;29;20104;-78
2021/08/13 08:13:15;;;;;;;15.30;9.05;;;;;;;;;;4885149;29;20380;-79
2021/08/13 08:15:40;;;;;;;11.52;8.43;;;;;;;;;;4882712;29;20372;-79
2021/08/13 08:18:06;;;;;;;15.32;8.73;;;;;;;;;;4878363;29;20048;-80
2021/08/13 08:20:31;;;;;;;11.37;7.93;;;;;;;;;;4878489;29;20125;-79
2021/08/13 08:22:56;;;;;;;13.00;8.18;;;;;;;;;;4880377;29;20056;-78
2021/08/13 08:25:22;;;;;;;15.05;8.75;;;;;;;;;;4872404;29;20029;-81
2021/08/13 08:27:48;;;;;;;12.50;8.75;;;;;;;;;;4868647;29;20488;-78
2021/08/13 08:30:13;;;;;;;15.37;8.57;;;;;;;;;;4882434;29;20025;-79
2021/08/13 08:32:39;;;;;;;12.45;9.27;;;;;;;;;;4883264;29;20025;-78
2021/08/13 08:35:04;;;;;;;15.45;8.50;;;;;;;;;;4879291;29;20111;-79
2021/08/13 08:37:30;;;;;;;15.43;8.73;;;;;;;;;;4874351;29;20431;-80
2021/08/13 08:39:55;;;;;;;17.17;8.87;;;;;;;;;;4877852;29;20035;-80
2021/08/13 08:42:21;;;;;;;13.38;8.15;;;;;;;;;;4877986;29;20108;-79
2021/08/13 08:44:46;;;;;;;18.63;8.75;;;;;;;;;;4875592;29;20234;-79
2021/08/13 08:47:11;;;;;;;13.60;8.25;;;;;;;;;;4875881;29;20021;-78
2021/08/13 08:49:39;;;;;;;14.68;8.32;;;;;;;;;;4884984;29;20032;-79
2021/08/13 08:52:06;;;;;;;12.15;8.68;;;;;;;;;;4881882;29;20543;-80
2021/08/13 08:54:32;;;;;;;12.43;8.77;;;;;;;;;;4880444;29;20436;-78
2021/08/13 08:56:58;;;;;;;12.43;8.50;;;;;;;;;;4885028;29;20025;-79
2021/08/13 08:59:24;;;;;;;14.73;8.18;;;;;;;;;;4877893;29;20647;-79
2021/08/13 09:01:49;;;;;;;13.60;8.60;;;;;;;;;;4881252;29;20444;-80
2021/08/13 09:04:14;;;;;;;12.37;8.13;;;;;;;;;;4879715;29;20047;-79
2021/08/13 09:06:41;;;;;;;13.00;8.75;;;;;;;;;;4881302;29;20095;-79
2021/08/13 09:09:06;;;;;;;16.40;9.48;;;;;;;;;;4879735;29;20195;-78
2021/08/13 09:11:32;;;;;;;14.68;8.73;;;;;;;;;;4885119;29;20500;-80
2021/08/13 09:13:59;;;;;;;13.20;8.10;;;;;;;;;;4879844;29;20407;-80
2021/08/13 09:16:24;;;;;;;19.88;10.43;;;;;;;;;;4882419;29;20544;-79
2021/08/13 09:18:57;;;;;;;16.13;9.48;;;;;;;;;;4878907;29;20037;-81
2021/08/13 09:21:24;;;;;;;19.52;9.75;;;;;;;;;;4874879;29;20028;-78
2021/08/13 09:23:49;;;;;;;16.13;9.15;;;;;;;;;;4876272;29;20070;-78
2021/08/13 09:26:18;;;;;;;17.42;9.30;;;;;;;;;;4879629;29;20484;-78
2021/08/13 09:28:47;;;;;;;14.47;9.20;;;;;;;;;;4876118;29;20111;-78
2021/08/13 09:31:22;;;;;;;15.55;8.98;;;;;;;;;;4881547;29;20269;-78
2021/08/13 09:33:49;;;;;;;14.40;7.88;;;;;;;;;;4881022;29;20545;-80
2021/08/13 09:36:16;;;;;;;16.25;8.52;;;;;;;;;;4874261;29;20188;-79
2021/08/13 09:38:42;;;;;;;12.30;7.85;;;;;;;;;;4879124;29;20095;-78
2021/08/13 09:41:11;;;;;;;11.55;7.90;;;;;;;;;;4875704;29;20062;-79
2021/08/13 09:43:54;;;;;;;14.52;8.95;;;;;;;;;;4882177;29;20445;-79
2021/08/13 09:46:19;;;;;;;14.40;9.40;;;;;;;;;;4878232;29;20108;-79
2021/08/13 09:48:45;;;;;;;11.27;7.47;;;;;;;;;;4882577;29;20099;-79
2021/08/13 09:51:36;;;;;;;10.40;7.50;;;;;;;;;;4886603;29;20037;-78
2021/08/13 09:54:03;;;;;;;11.10;7.82;;;;;;;;;;4876097;29;20140;-79
2021/08/13 09:56:30;;;;;;;9.45;6.75;;;;;;;;;;4879801;29;20029;-79
2021/08/13 09:59:07;;;;;;;9.52;7.35;;;;;;;;;;4879936;29;20103;-80
2021/08/13 10:01:46;;;;;;;13.95;7.35;;;;;;;;;;4873536;29;20033;-80
2021/08/13 10:04:12;;;;;;;10.80;7.57;;;;;;;;;;4884144;29;20114;-79
2021/08/13 10:06:38;;;;;;;13.45;8.50;;;;;;;;;;4884745;29;20099;-79
2021/08/13 10:09:04;;;;;;;11.52;7.05;;;;;;;;;;4884432;29;20440;-81
2021/08/13 10:11:32;;;;;;;13.48;8.25;;;;;;;;;;4881347;29;20380;-79
2021/08/13 10:13:57;;;;;;;11.68;6.97;;;;;;;;;;4883566;29;20052;-80
2021/08/13 10:16:23;;;;;;;15.63;7.78;;;;;;;;;;4882712;29;20472;-79
2021/08/13 10:18:55;;;;;;;11.60;7.25;;;;;;;;;;4883727;29;20045;-80
2021/08/13 10:21:21;;;;;;;14.23;8.05;;;;;;;;;;4883013;29;20028;-80
2021/08/13 10:23:46;;;;;;;15.85;8.20;;;;;;;;;;4880792;29;20029;-79
2021/08/13 10:26:12;;;;;;;13.35;8.18;;;;;;;;;;4880043;29;21770;-78
2021/08/13 10:28:37;;;;;;;13.95;7.13;;;;;;;;;;4880918;29;20028;-80
2021/08/13 10:31:03;;;;;;;12.02;7.95;;;;;;;;;;4882688;29;20119;-80
2021/08/13 10:33:28;;;;;;;11.95;8.85;;;;;;;;;;4883974;29;20100;-79
2021/08/13 10:35:54;;;;;;;15.83;8.57;;;;;;;;;;4882087;29;20028;-79
2021/08/13 10:38:21;;;;;;;13.73;8.43;;;;;;;;;;4882918;29;20384;-77
2021/08/13 10:40:47;;;;;;;16.00;7.90;;;;;;;;;;4887221;29;20032;-79
2021/08/13 10:43:13;;;;;;;13.75;9.05;;;;;;;;;;4885877;29;20480;-79
2021/08/13 10:45:39;;;;;;;16.05;8.57;;;;;;;;;;4882899;29;20084;-78
2021/08/13 10:48:05;;;;;;;19.23;10.13;;;;;;;;;;4881243;29;20021;-79
2021/08/13 10:50:30;;;;;;;15.02;9.35;;;;;;;;;;4887397;29;20028;-78
2021/08/13 10:52:55;;;;;;;12.07;8.63;;;;;;;;;;4882544;29;20029;-78
2021/08/13 10:55:41;;;;;;;12.87;8.50;;;;;;;;;;4882273;29;20025;-78
2021/08/13 10:58:08;;;;;;;13.10;7.78;;;;;;;;;;4880604;29;20771;-78
2021/08/13 11:00:51;;;;;;;11.80;8.57;;;;;;;;;;4862475;29;20437;-80
2021/08/13 11:03:18;;;;;;;14.05;8.57;;;;;;;;;;4879378;29;20412;-80
2021/08/13 11:05:58;;;;;;;10.73;8.40;;;;;;;;;;4882082;29;20024;-78
2021/08/13 11:08:23;;;;;;;12.23;8.63;;;;;;;;;;4888153;29;20420;-79
2021/08/13 11:10:48;;;;;;;13.18;8.38;;;;;;;;;;4885003;29;20036;-79
2021/08/13 11:13:14;;;;;;;12.02;8.43;;;;;;;;;;4879638;29;20036;-80
2021/08/13 11:15:40;;;;;;;14.25;9.57;;;;;;;;;;4883350;29;20025;-81
2021/08/13 11:18:24;;;;;;;14.90;9.30;;;;;;;;;;4883934;29;20067;-80
2021/08/13 11:20:49;;;;;;;16.02;8.63;;;;;;;;;;4882218;29;20370;-80
2021/08/13 11:23:15;;;;;;;15.32;8.52;;;;;;;;;;4879209;29;20029;-79
2021/08/13 11:25:47;;;;;;;12.73;8.73;;;;;;;;;;4880430;29;20024;-79
2021/08/13 11:28:18;;;;;;;13.68;8.73;;;;;;;;;;4877817;29;20388;-78
2021/08/13 11:30:45;;;;;;;13.70;8.90;;;;;;;;;;4881592;29;20542;-79
2021/08/13 11:33:25;;;;;;;11.80;8.68;;;;;;;;;;4875156;29;20361;-79
2021/08/13 11:35:51;;;;;;;12.52;8.93;;;;;;;;;;4879720;29;20361;-79
2021/08/13 11:38:36;;;;;;;13.52;8.93;;;;;;;;;;4880842;29;20031;-79
2021/08/13 11:41:21;;;;;;;12.90;8.50;;;;;;;;;;4887183;29;20384;-81
2021/08/13 11:43:47;;;;;;;15.23;9.55;;;;;;;;;;4877451;29;20025;-81
2021/08/13 11:46:22;;;;;;;12.60;9.55;;;;;;;;;;4880173;29;20028;-82
2021/08/13 11:48:47;;;;;;;12.95;8.48;;;;;;;;;;4881098;29;20445;-82
2021/08/13 11:51:13;;;;;;;12.82;9.02;;;;;;;;;;4880226;29;20056;-82
2021/08/13 11:53:38;;;;;;;13.75;8.88;;;;;;;;;;4881879;29;20794;-82
2021/08/13 11:56:04;;;;;;;11.70;8.27;;;;;;;;;;4880798;29;20439;-82
2021/08/13 11:58:30;;;;;;;11.70;7.78;;;;;;;;;;4878825;29;20028;-82
2021/08/13 12:01:03;;;;;;;12.88;9.20;;;;;;;;;;4882027;29;20033;-82
2021/08/13 12:03:28;;;;;;;11.77;8.98;;;;;;;;;;4879594;29;20459;-82
2021/08/13 12:05:53;;;;;;;13.10;8.67;;;;;;;;;;4880985;29;20117;-81
2021/08/13 12:08:19;;;;;;;13.73;8.67;;;;;;;;;;4881323;29;20057;-82
2021/08/13 12:10:45;;;;;;;15.27;8.53;;;;;;;;;;4880784;29;20146;-82
2021/08/13 12:13:11;;;;;;;12.60;8.85;;;;;;;;;;4884874;29;20025;-82
2021/08/13 12:15:38;;;;;;;11.98;8.88;;;;;;;;;;4880539;29;20029;-81
2021/08/13 12:18:03;;;;;;;9.63;8.05;;;;;;;;;;4884174;29;20032;-82
2021/08/13 12:20:29;;;;;;;14.77;8.85;;;;;;;;;;4883161;29;20112;-80
2021/08/13 12:22:57;;;;;;;10.57;8.43;;;;;;;;;;4881258;29;20064;-81
2021/08/13 12:25:22;;;;;;;11.90;7.97;;;;;;;;;;4862307;29;20017;-85
2021/08/13 12:27:47;;;;;;;11.88;7.68;;;;;;;;;;4880188;29;20031;-81
2021/08/13 12:30:14;;;;;;;11.20;7.78;;;;;;;;;;4880643;29;20033;-81
2021/08/13 12:32:40;;;;;;;15.05;7.43;;;;;;;;;;4880396;29;20366;-81
2021/08/13 12:35:10;;;;;;;11.98;8.23;;;;;;;;;;4878311;29;21379;-81
2021/08/13 12:37:36;;;;;;;17.55;8.48;;;;;;;;;;4884432;29;20388;-80
2021/08/13 12:40:02;;;;;;;12.38;8.52;;;;;;;;;;4881413;29;20056;-84
2021/08/13 12:42:28;;;;;;;12.82;7.75;;;;;;;;;;4879620;29;20358;-85
2021/08/13 12:44:54;;;;;;;12.80;7.97;;;;;;;;;;4886416;29;20036;-79
2021/08/13 12:47:20;;;;;;;13.88;8.07;;;;;;;;;;4889482;29;20053;-80
2021/08/13 12:49:45;;;;;;;10.90;8.25;;;;;;;;;;4883016;29;20591;-79
2021/08/13 12:52:17;;;;;;;14.68;8.55;;;;;;;;;;4880698;29;20417;-78
2021/08/13 12:54:43;;;;;;;12.65;8.45;;;;;;;;;;4878224;29;20420;-78
2021/08/13 12:57:35;;;;;;;13.73;9.23;;;;;;;;;;4880867;29;20083;-78
2021/08/13 13:00:05;;;;;;;12.95;8.45;;;;;;;;;;4875306;29;20036;-78
2021/08/13 13:02:31;;;;;;;14.77;9.48;;;;;;;;;;4880156;29;20384;-80
2021/08/13 13:04:59;;;;;;;14.50;8.27;;;;;;;;;;4880238;29;20036;-81
2021/08/13 13:07:35;;;;;;;11.65;9.05;;;;;;;;;;4881818;29;20028;-81
2021/08/13 13:10:11;;;;;;;11.52;8.00;;;;;;;;;;4879039;29;20429;-80
2021/08/13 13:12:37;;;;;;;9.88;7.85;;;;;;;;;;4878757;29;20413;-82
2021/08/13 13:15:04;;;;;;;14.13;8.50;;;;;;;;;;4879828;29;20032;-83
2021/08/13 13:17:30;;;;;;;14.05;8.23;;;;;;;;;;4876328;29;20032;-84
2021/08/13 13:20:05;;;;;;;13.13;7.97;;;;;;;;;;4874181;29;20484;-82
2021/08/13 13:22:30;;;;;;;14.00;8.02;;;;;;;;;;4867976;29;20432;-83
2021/08/13 13:25:12;;;;;;;11.02;7.20;;;;;;;;;;4877622;29;20029;-83
2021/08/13 13:27:50;;;;;;;13.82;8.23;;;;;;;;;;4879495;29;20108;-85
2021/08/13 13:30:34;;;;;;;11.90;8.03;;;;;;;;;;4876840;29;20369;-84
2021/08/13 13:33:00;;;;;;;10.32;7.93;;;;;;;;;;4880063;29;20711;-83
2021/08/13 13:35:26;;;;;;;14.43;7.35;;;;;;;;;;4877129;29;20044;-83
2021/08/13 13:37:51;;;;;;;9.60;6.57;;;;;;;;;;4877650;29;20053;-83
2021/08/13 13:40:17;;;;;;;13.23;7.57;;;;;;;;;;4879746;29;20093;-83
2021/08/13 13:42:42;;;;;;;10.48;7.10;;;;;;;;;;4876987;29;20036;-83
2021/08/13 13:45:09;;;;;;;12.27;6.40;;;;;;;;;;4885596;29;20494;-84
2021/08/13 13:47:34;;;;;;;11.38;6.60;;;;;;;;;;4878691;29;20383;-83
2021/08/13 13:49:59;;;;;;;11.47;7.00;;;;;;;;;;4877504;29;20025;-84
2021/08/13 13:52:24;;;;;;;13.03;7.10;;;;;;;;;;4879606;29;20032;-83
2021/08/13 13:54:49;;;;;;;15.23;7.30;;;;;;;;;;4883371;29;20096;-82
2021/08/13 13:57:15;;;;;;;10.77;7.03;;;;;;;;;;4882361;29;20298;-83
2021/08/13 13:59:40;;;;;;;11.40;7.00;;;;;;;;;;4878321;29;20084;-83
2021/08/13 14:02:06;;;;;;;12.00;6.87;;;;;;;;;;4877515;29;20033;-83
2021/08/13 14:04:32;;;;;;;12.07;6.97;;;;;;;;;;4878531;29;20751;-84
2021/08/13 14:06:57;;;;;;;13.57;6.97;;;;;;;;;;4882746;29;20036;-82
2021/08/13 14:09:22;;;;;;;12.77;7.07;;;;;;;;;;4879599;29;20504;-83
2021/08/13 14:11:48;;;;;;;11.32;7.38;;;;;;;;;;4877283;29;20028;-81
2021/08/13 14:14:13;;;;;;;10.43;6.70;;;;;;;;;;4886575;29;20042;-82
2021/08/13 14:16:38;;;;;;;14.53;7.70;;;;;;;;;;4879004;29;20032;-83
2021/08/13 14:19:04;;;;;;;11.65;7.13;;;;;;;;;;4886598;29;20021;-83
2021/08/13 14:21:29;;;;;;;10.00;7.15;;;;;;;;;;4879426;29;20112;-84
2021/08/13 14:23:54;;;;;;;12.93;6.57;;;;;;;;;;4879995;29;20085;-83
2021/08/13 14:26:20;;;;;;;9.50;6.22;;;;;;;;;;4885144;29;20028;-82
2021/08/13 14:28:45;;;;;;;12.83;6.97;;;;;;;;;;4878319;29;20032;-83